Time;durP1;ratioP1;P1;durP2;ratioP2;P2;SDS_P1;SDS_P2;PMS_P1;PMS_P2;Temp;Humidity;BMP_temperature;BMP_pressure;BME280_temperature;BME280_humidity;BME280_pressure;Samples;Min_cycle;Max_cycle;Signal;HPM_P1;HPM_P2
2021/08/22 00:02:24;;;;;;;9.57;3.58;;;;;;;16.36;100.00;94086.81;5073642;28;20194;-80
2021/08/22 00:04:50;;;;;;;8.18;4.20;;;;;;;16.48;100.00;94071.00;5073704;28;20198;-80
2021/08/22 00:07:17;;;;;;;6.63;4.03;;;;;;;16.45;100.00;94077.50;5072863;28;20430;-81
2021/08/22 00:09:43;;;;;;;9.32;4.13;;;;;;;16.37;100.00;94072.56;5073461;28;20650;-80
2021/08/22 00:12:10;;;;;;;8.73;4.05;;;;;;;16.34;100.00;94065.16;5073342;28;20624;-80
2021/08/22 00:14:36;;;;;;;5.28;3.55;;;;;;;16.25;100.00;94054.94;5073447;28;20211;-80
2021/08/22 00:17:03;;;;;;;10.32;4.43;;;;;;;15.88;100.00;94059.59;5073470;28;20210;-79
2021/08/22 00:19:31;;;;;;;7.30;4.30;;;;;;;15.69;100.00;94058.84;5072406;28;20437;-82
2021/08/22 00:21:58;;;;;;;6.55;4.10;;;;;;;15.67;100.00;94066.97;5073295;28;20206;-78
2021/08/22 00:24:24;;;;;;;7.25;4.13;;;;;;;15.54;100.00;94057.41;5073409;28;20202;-77
2021/08/22 00:26:51;;;;;;;8.82;4.40;;;;;;;15.40;100.00;94055.97;5073360;28;20202;-79
2021/08/22 00:29:17;;;;;;;7.03;4.07;;;;;;;15.30;100.00;94061.75;5073289;28;20195;-80
2021/08/22 00:31:44;;;;;;;7.93;4.43;;;;;;;15.18;100.00;94072.25;5073171;28;20543;-79
2021/08/22 00:34:11;;;;;;;10.50;4.40;;;;;;;15.11;100.00;94084.66;5072950;28;20309;-79
2021/08/22 00:36:38;;;;;;;12.65;4.38;;;;;;;15.12;100.00;94093.34;5073218;28;20195;-79
2021/08/22 00:39:05;;;;;;;10.23;4.50;;;;;;;15.15;100.00;94103.44;5073206;28;20202;-81
2021/08/22 00:41:31;;;;;;;9.35;5.32;;;;;;;15.28;100.00;94107.75;5072941;28;20680;-81
2021/08/22 00:43:58;;;;;;;8.90;4.85;;;;;;;15.86;100.00;94115.09;5073491;28;20672;-81
2021/08/22 00:46:25;;;;;;;8.27;4.47;;;;;;;16.08;100.00;94127.75;5072835;28;20241;-79
2021/08/22 00:48:52;;;;;;;7.00;4.53;;;;;;;16.13;100.00;94132.34;5072010;28;20202;-79
2021/08/22 00:51:18;;;;;;;9.88;4.68;;;;;;;16.18;100.00;94132.47;5073130;28;20198;-79
2021/08/22 00:53:47;;;;;;;6.50;4.03;;;;;;;16.50;100.00;94135.59;5072840;28;20628;-78
2021/08/22 00:56:14;;;;;;;6.85;4.13;;;;;;;16.52;100.00;94120.38;5073065;28;20210;-77
2021/08/22 00:58:40;;;;;;;6.55;3.85;;;;;;;16.45;100.00;94117.88;5072959;28;20570;-78
2021/08/22 01:01:13;;;;;;;6.32;4.20;;;;;;;16.40;100.00;94122.19;5072851;28;20198;-78
2021/08/22 01:03:46;;;;;;;17.98;4.95;;;;;;;16.41;100.00;94115.91;5073098;28;20203;-78
2021/08/22 01:06:22;;;;;;;13.18;4.80;;;;;;;16.33;100.00;94106.50;5072975;28;20209;-79
2021/08/22 01:08:58;;;;;;;7.88;4.35;;;;;;;16.22;100.00;94079.13;5072883;28;20199;-79
2021/08/22 01:11:26;;;;;;;9.02;4.32;;;;;;;16.08;100.00;94077.72;5072794;28;20553;-81
2021/08/22 01:13:56;;;;;;;7.75;3.80;;;;;;;16.15;100.00;94074.97;5072596;28;20588;-79
2021/08/22 01:16:27;;;;;;;5.28;3.47;;;;;;;16.04;100.00;94077.38;5073135;28;20229;-79
2021/08/22 01:18:58;;;;;;;7.53;4.10;;;;;;;15.99;100.00;94076.44;5072967;28;20225;-80
2021/08/22 01:21:26;;;;;;;8.70;4.40;;;;;;;15.97;100.00;94083.75;5072763;28;20199;-80
2021/08/22 01:23:56;;;;;;;5.88;3.88;;;;;;;15.95;100.00;94077.91;5072711;28;20202;-79
2021/08/22 01:26:29;;;;;;;6.57;4.18;;;;;;;15.91;100.00;94070.47;5072599;28;20203;-79
2021/08/22 01:28:57;;;;;;;7.45;4.82;;;;;;;15.83;100.00;94070.00;5072751;28;20203;-81
2021/08/22 01:31:27;;;;;;;8.55;4.60;;;;;;;15.72;100.00;94067.09;5072739;28;20199;-80
2021/08/22 01:33:57;;;;;;;8.10;4.43;;;;;;;15.68;100.00;94073.00;5072499;28;20231;-79
2021/08/22 01:36:25;;;;;;;7.90;5.18;;;;;;;15.69;100.00;94064.09;5072585;28;20198;-79
2021/08/22 01:38:52;;;;;;;8.43;5.15;;;;;;;15.67;100.00;94063.50;5072497;28;20214;-82
2021/08/22 01:41:22;;;;;;;11.38;5.32;;;;;;;15.62;100.00;94058.09;5072967;28;20286;-81
2021/08/22 01:43:50;;;;;;;8.00;4.72;;;;;;;15.57;100.00;94065.88;5072972;28;20207;-81
2021/08/22 01:46:17;;;;;;;7.97;4.72;;;;;;;15.58;100.00;94064.88;5066512;28;20223;-79
2021/08/22 01:48:44;;;;;;;11.55;6.00;;;;;;;15.60;100.00;94055.69;5051899;28;20436;-79
2021/08/22 01:51:12;;;;;;;11.77;5.70;;;;;;;15.59;100.00;94040.13;5052430;28;20212;-79
2021/08/22 01:53:39;;;;;;;11.35;5.57;;;;;;;15.58;100.00;94030.66;5052213;28;20227;-80
2021/08/22 01:56:05;;;;;;;13.13;5.13;;;;;;;15.56;100.00;94022.97;5068426;28;20210;-79
2021/08/22 01:58:33;;;;;;;9.48;4.93;;;;;;;15.53;100.00;94016.31;5072212;28;20203;-81
2021/08/22 02:00:59;;;;;;;11.27;5.20;;;;;;;15.53;100.00;93982.09;5075424;28;20205;-80
2021/08/22 02:03:32;;;;;;;10.05;5.18;;;;;;;15.51;100.00;93973.66;5076086;28;20206;-80
2021/08/22 02:06:05;;;;;;;8.05;4.95;;;;;;;15.52;100.00;93971.81;5075908;28;20203;-80
2021/08/22 02:08:35;;;;;;;8.52;5.90;;;;;;;15.51;100.00;93980.75;5076052;28;20199;-80
2021/08/22 02:11:07;;;;;;;8.48;5.18;;;;;;;15.53;100.00;93981.31;5075940;28;20550;-79
2021/08/22 02:13:38;;;;;;;14.27;5.50;;;;;;;15.53;100.00;93971.59;5075802;28;20586;-81
2021/08/22 02:16:06;;;;;;;8.32;5.43;;;;;;;15.51;100.00;93973.66;5075807;28;20202;-80
2021/08/22 02:18:35;;;;;;;8.60;5.20;;;;;;;15.50;100.00;93979.94;5075655;28;20313;-80
2021/08/22 02:21:02;;;;;;;9.70;5.78;;;;;;;15.52;100.00;93975.25;5075712;28;20205;-80
2021/08/22 02:23:29;;;;;;;12.70;5.43;;;;;;;15.50;100.00;93976.50;5075601;28;20654;-80
2021/08/22 02:25:57;;;;;;;8.73;5.20;;;;;;;15.47;100.00;93966.41;5075494;28;20657;-79
2021/08/22 02:28:24;;;;;;;8.88;4.78;;;;;;;15.43;100.00;93960.81;5075551;28;20202;-80
2021/08/22 02:30:51;;;;;;;8.10;5.28;;;;;;;15.48;100.00;93954.88;5075384;28;20195;-79
2021/08/22 02:33:18;;;;;;;8.65;5.85;;;;;;;15.53;100.00;93968.16;5074806;28;20478;-78
2021/08/22 02:35:45;;;;;;;10.75;5.22;;;;;;;15.51;100.00;93973.66;5075595;28;20295;-78
2021/08/22 02:38:11;;;;;;;12.05;5.78;;;;;;;15.46;100.00;93976.16;5075499;28;20228;-80
2021/08/22 02:40:38;;;;;;;9.02;5.60;;;;;;;15.46;100.00;93978.78;5074951;28;20199;-80
2021/08/22 02:43:05;;;;;;;7.82;5.22;;;;;;;15.47;100.00;93977.78;5075255;28;20203;-80
2021/08/22 02:45:33;;;;;;;14.15;6.03;;;;;;;15.46;100.00;93975.34;5074911;28;20229;-80
2021/08/22 02:48:00;;;;;;;9.63;5.55;;;;;;;15.47;100.00;93975.13;5075383;28;20207;-81
2021/08/22 02:50:28;;;;;;;8.93;5.28;;;;;;;15.46;100.00;93978.78;5075237;28;20205;-80
2021/08/22 02:52:54;;;;;;;9.73;6.07;;;;;;;15.41;100.00;93981.28;5075120;28;20198;-81
2021/08/22 02:55:21;;;;;;;7.97;5.32;;;;;;;15.34;100.00;93991.91;5075053;28;20199;-80
2021/08/22 02:57:48;;;;;;;8.00;5.35;;;;;;;15.33;100.00;93989.50;5074869;28;20211;-82
2021/08/22 03:00:16;;;;;;;9.32;5.00;;;;;;;15.30;100.00;93985.47;5074913;28;20194;-80
2021/08/22 03:02:43;;;;;;;9.82;5.57;;;;;;;15.34;100.00;93985.84;5075036;28;20194;-79
2021/08/22 03:05:10;;;;;;;7.82;5.15;;;;;;;15.24;100.00;93988.19;5074961;28;20195;-80
2021/08/22 03:07:36;;;;;;;8.35;5.00;;;;;;;15.26;100.00;93986.19;5074905;28;20562;-81
2021/08/22 03:10:04;;;;;;;7.80;5.07;;;;;;;15.17;100.00;93989.13;5074708;28;20821;-81
2021/08/22 03:12:30;;;;;;;8.88;4.70;;;;;;;15.14;100.00;93986.94;5073788;28;20206;-80
2021/08/22 03:14:57;;;;;;;8.15;4.65;;;;;;;15.12;100.00;93989.00;5074727;28;20226;-80
2021/08/22 03:17:25;;;;;;;8.32;5.22;;;;;;;15.06;100.00;93996.97;5074771;28;20210;-80
2021/08/22 03:19:51;;;;;;;9.75;5.30;;;;;;;15.04;100.00;93988.47;5074729;28;20203;-79
2021/08/22 03:22:18;;;;;;;9.40;5.15;;;;;;;15.03;100.00;93994.78;5074536;28;20237;-81
2021/08/22 03:24:45;;;;;;;8.88;5.50;;;;;;;15.03;100.00;93992.16;5074458;28;20203;-81
2021/08/22 03:27:11;;;;;;;10.23;5.65;;;;;;;14.98;100.00;93985.72;5074393;28;20221;-80
2021/08/22 03:29:38;;;;;;;7.95;5.22;;;;;;;15.02;100.00;93986.09;5074248;28;20199;-81
2021/08/22 03:32:05;;;;;;;9.45;5.30;;;;;;;15.01;100.00;93976.59;5074376;28;20202;-81
2021/08/22 03:34:33;;;;;;;8.77;5.35;;;;;;;14.99;100.00;93978.66;5074355;28;20227;-81
2021/08/22 03:36:59;;;;;;;11.35;5.55;;;;;;;14.99;100.00;93981.28;5074228;28;20206;-80
2021/08/22 03:39:26;;;;;;;8.50;5.28;;;;;;;15.01;100.00;93984.47;5074135;28;20564;-81
2021/08/22 03:41:52;;;;;;;9.70;5.13;;;;;;;14.99;100.00;93994.41;5074005;28;20205;-81
2021/08/22 03:44:19;;;;;;;11.13;5.43;;;;;;;14.95;100.00;93988.81;5074139;28;20210;-79
2021/08/22 03:46:45;;;;;;;7.68;5.05;;;;;;;14.97;100.00;93985.94;5073945;28;20227;-78
2021/08/22 03:49:11;;;;;;;9.15;5.25;;;;;;;14.94;100.00;93994.28;5074101;28;20212;-79
2021/08/22 03:51:39;;;;;;;9.90;4.97;;;;;;;14.91;100.00;93997.34;5073938;28;20578;-79
2021/08/22 03:54:06;;;;;;;9.75;4.53;;;;;;;14.89;100.00;94004.63;5073599;28;20601;-79
2021/08/22 03:56:32;;;;;;;9.13;5.22;;;;;;;14.90;100.00;93999.16;5073915;28;20203;-80
2021/08/22 03:59:01;;;;;;;10.38;5.40;;;;;;;14.89;100.00;94002.00;5073600;28;20550;-82
2021/08/22 04:01:27;;;;;;;8.60;4.72;;;;;;;14.83;100.00;94008.16;5073687;28;20766;-80
2021/08/22 04:03:53;;;;;;;7.65;4.68;;;;;;;14.80;100.00;94014.66;5073779;28;20210;-82
2021/08/22 04:06:20;;;;;;;8.93;4.75;;;;;;;14.82;100.00;94017.06;5073683;28;20198;-82
2021/08/22 04:08:48;;;;;;;6.80;4.70;;;;;;;14.82;100.00;94017.06;5073606;28;20600;-78
2021/08/22 04:11:14;;;;;;;8.02;4.43;;;;;;;14.78;100.00;94032.47;5073664;28;20202;-80
2021/08/22 04:13:40;;;;;;;11.10;4.90;;;;;;;14.80;100.00;94031.25;5073595;28;20230;-80
2021/08/22 04:16:07;;;;;;;8.73;4.47;;;;;;;14.79;100.00;94026.22;5073533;28;20203;-80
2021/08/22 04:18:33;;;;;;;7.50;5.22;;;;;;;14.80;100.00;94020.75;5073306;28;20198;-81
2021/08/22 04:21:00;;;;;;;6.90;4.90;;;;;;;14.84;100.00;94025.53;5073396;28;20205;-80
2021/08/22 04:23:27;;;;;;;7.35;4.53;;;;;;;14.91;100.00;94028.91;5072894;28;20202;-80
2021/08/22 04:25:55;;;;;;;9.95;4.43;;;;;;;14.92;100.00;94027.84;5073540;28;20558;-80
2021/08/22 04:28:21;;;;;;;9.70;4.68;;;;;;;14.92;100.00;94030.50;5073298;28;20207;-80
2021/08/22 04:30:48;;;;;;;9.23;4.40;;;;;;;14.90;100.00;94035.16;5073309;28;20203;-80
2021/08/22 04:33:14;;;;;;;7.72;4.68;;;;;;;14.96;100.00;94029.03;5073078;28;20199;-80
2021/08/22 04:35:41;;;;;;;8.35;4.63;;;;;;;14.94;100.00;94031.09;5073379;28;20198;-80
2021/08/22 04:38:07;;;;;;;5.90;3.90;;;;;;;14.97;100.00;94026.19;5072920;28;20206;-80
2021/08/22 04:40:34;;;;;;;8.55;3.88;;;;;;;14.96;100.00;94029.84;5072989;28;20199;-79
2021/08/22 04:43:01;;;;;;;6.30;4.20;;;;;;;15.04;100.00;94036.63;5073151;28;20199;-82
2021/08/22 04:45:28;;;;;;;6.43;4.10;;;;;;;15.03;100.00;94034.22;5072527;28;20242;-79
2021/08/22 04:47:54;;;;;;;9.07;4.43;;;;;;;14.96;100.00;94039.56;5073079;28;20195;-81
2021/08/22 04:50:21;;;;;;;6.72;3.75;;;;;;;14.93;100.00;94029.47;5073013;28;20676;-79
2021/08/22 04:52:47;;;;;;;8.90;4.05;;;;;;;14.94;100.00;94031.09;5072954;28;20210;-79
2021/08/22 04:55:14;;;;;;;9.70;4.35;;;;;;;14.95;100.00;94037.94;5072879;28;20695;-79
2021/08/22 04:57:40;;;;;;;7.00;4.63;;;;;;;14.92;100.00;94041.00;5073050;28;20199;-78
2021/08/22 05:00:10;;;;;;;10.15;4.35;;;;;;;14.94;100.00;94033.72;5073012;28;20202;-80
2021/08/22 05:02:36;;;;;;;9.60;4.43;;;;;;;14.95;100.00;94038.75;5072849;28;20202;-80
2021/08/22 05:05:03;;;;;;;14.98;4.13;;;;;;;14.94;100.00;94045.03;5072687;28;20676;-80
2021/08/22 05:07:29;;;;;;;9.80;4.10;;;;;;;14.99;100.00;94033.88;5073059;28;20202;-80
2021/08/22 05:09:55;;;;;;;10.52;4.35;;;;;;;15.04;100.00;94036.63;5072994;28;20198;-78
2021/08/22 05:12:22;;;;;;;8.60;4.03;;;;;;;15.05;100.00;94040.84;5072937;28;20194;-79
2021/08/22 05:14:48;;;;;;;5.72;3.90;;;;;;;15.08;100.00;94036.97;5072622;28;20226;-79
2021/08/22 05:17:16;;;;;;;7.50;4.03;;;;;;;15.18;100.00;94034.63;5072701;28;20213;-81
2021/08/22 05:19:42;;;;;;;5.95;3.63;;;;;;;15.38;100.00;94034.34;5072721;28;20676;-80
2021/08/22 05:22:09;;;;;;;5.68;3.50;;;;;;;15.36;100.00;94039.03;5072957;28;20206;-80
2021/08/22 05:24:35;;;;;;;6.03;3.83;;;;;;;15.36;100.00;94039.03;5072850;28;20741;-80
2021/08/22 05:27:02;;;;;;;8.50;3.72;;;;;;;15.38;100.00;94036.19;5073409;28;20668;-78
2021/08/22 05:29:28;;;;;;;10.43;3.72;;;;;;;15.40;100.00;94040.19;5073026;28;20206;-78
2021/08/22 05:31:55;;;;;;;11.73;3.83;;;;;;;15.58;100.00;94041.97;5072664;28;20195;-78
2021/08/22 05:34:22;;;;;;;5.75;3.30;;;;;;;15.62;100.00;94050.22;5073093;28;20252;-80
2021/08/22 05:36:49;;;;;;;5.25;3.33;;;;;;;15.73;100.00;94055.50;5076798;28;20222;-79
2021/08/22 05:39:15;;;;;;;5.95;3.80;;;;;;;15.82;100.00;94048.13;5076578;28;20195;-80
2021/08/22 05:41:42;;;;;;;5.93;3.92;;;;;;;15.85;100.00;94054.75;5076550;28;20202;-80
2021/08/22 05:44:08;;;;;;;8.57;3.85;;;;;;;15.98;100.00;94059.03;5076248;28;20199;-80
2021/08/22 05:46:35;;;;;;;5.00;3.30;;;;;;;16.07;100.00;94052.38;5076131;28;20234;-79
2021/08/22 05:49:01;;;;;;;8.93;4.07;;;;;;;16.17;100.00;94059.72;5076169;28;20210;-80
2021/08/22 05:51:29;;;;;;;8.85;3.55;;;;;;;16.28;100.00;94062.38;5076349;28;20285;-79
2021/08/22 05:53:55;;;;;;;5.28;3.50;;;;;;;16.53;100.00;94058.72;5076024;28;20570;-82
2021/08/22 05:56:22;;;;;;;5.40;3.22;;;;;;;16.64;100.00;94057.91;5076202;28;20202;-78
2021/08/22 05:58:49;;;;;;;6.75;3.47;;;;;;;16.87;100.00;94048.41;5076007;28;20199;-80
2021/08/22 06:01:15;;;;;;;6.70;3.35;;;;;;;17.07;100.00;94049.81;5075839;28;20743;-79
2021/08/22 06:03:42;;;;;;;5.43;3.15;;;;;;;17.11;100.00;94037.78;5076114;28;20198;-79
2021/08/22 06:06:09;;;;;;;7.40;3.60;;;;;;;17.16;100.00;94029.97;5075334;28;20913;-78
2021/08/22 06:08:37;;;;;;;5.10;3.30;;;;;;;17.22;100.00;94041.41;5076104;28;20210;-81
2021/08/22 06:11:04;;;;;;;6.85;3.30;;;;;;;17.24;100.00;94032.25;5075897;28;20199;-80
2021/08/22 06:13:30;;;;;;;5.25;3.33;;;;;;;17.45;100.00;94032.59;5075714;28;20210;-80
2021/08/22 06:15:57;;;;;;;6.75;3.50;;;;;;;17.62;100.00;94022.88;5075578;28;20229;-79
2021/08/22 06:18:23;;;;;;;4.55;3.05;;;;;;;17.73;100.00;94034.41;5075861;28;20203;-79
2021/08/22 06:20:50;;;;;;;7.07;3.45;;;;;;;17.79;100.00;94028.19;5075752;28;20209;-79
2021/08/22 06:23:17;;;;;;;5.05;3.08;;;;;;;17.66;100.00;94024.00;5075748;28;20209;-79
2021/08/22 06:25:44;;;;;;;5.47;3.60;;;;;;;17.81;100.00;94030.59;5075717;28;20210;-79
2021/08/22 06:28:12;;;;;;;5.50;3.20;;;;;;;17.75;100.00;94033.16;5075441;28;20202;-79
2021/08/22 06:30:39;;;;;;;5.03;3.17;;;;;;;17.68;100.00;94037.75;5075458;28;20293;-80
2021/08/22 06:33:05;;;;;;;6.28;3.03;;;;;;;17.68;100.00;94031.69;5075575;28;20225;-78
2021/08/22 06:35:32;;;;;;;6.47;3.60;;;;;;;17.73;100.00;94043.13;5075465;28;20230;-79
2021/08/22 06:37:58;;;;;;;5.43;3.10;;;;;;;17.96;100.00;94048.56;5075314;28;20553;-80
2021/08/22 06:40:24;;;;;;;5.80;3.20;;;;;;;18.00;100.00;94049.69;5075388;28;20198;-79
2021/08/22 06:42:52;;;;;;;4.95;3.00;;;;;;;18.11;100.00;94041.66;5075262;28;20226;-79
2021/08/22 06:45:19;;;;;;;5.82;3.42;;;;;;;18.16;100.00;94042.81;5074679;28;20250;-79
2021/08/22 06:47:46;;;;;;;6.57;3.05;;;;;;;18.39;100.00;94039.19;5074105;28;20205;-80
2021/08/22 06:50:13;;;;;;;5.47;2.90;;;;;;;18.59;100.00;94030.75;5074974;28;20724;-79
2021/08/22 06:52:40;;;;;;;7.03;3.35;;;;;;;18.69;100.00;94036.16;5075036;28;20199;-81
2021/08/22 06:55:07;;;;;;;6.65;3.15;;;;;;;18.74;100.00;94033.59;5074932;28;20719;-81
2021/08/22 06:57:33;;;;;;;6.70;3.40;;;;;;;18.89;100.00;94024.28;5074973;28;20199;-81
2021/08/22 07:00:01;;;;;;;5.50;3.40;;;;;;;18.95;100.00;94039.97;5075252;28;20230;-81
2021/08/22 07:02:28;;;;;;;5.73;3.70;;;;;;;19.09;100.00;94035.09;5075284;28;20924;-81
2021/08/22 07:04:54;;;;;;;6.13;3.03;;;;;;;19.09;100.00;94032.47;5074945;28;20445;-80
2021/08/22 07:07:20;;;;;;;4.25;2.80;;;;;;;19.33;99.57;94037.47;5074911;28;20368;-80
2021/08/22 07:09:47;;;;;;;5.47;3.22;;;;;;;19.03;100.00;94041.38;5074739;28;20205;-80
2021/08/22 07:12:14;;;;;;;4.93;2.85;;;;;;;18.96;100.00;94051.34;5074630;28;20203;-80
2021/08/22 07:14:41;;;;;;;5.38;2.83;;;;;;;19.28;100.00;94040.88;5074646;28;20276;-80
2021/08/22 07:17:09;;;;;;;5.50;3.25;;;;;;;19.50;100.00;94043.50;5074776;28;20202;-81
2021/08/22 07:19:37;;;;;;;4.30;3.00;;;;;;;19.54;98.88;94047.25;5074888;28;20194;-80
2021/08/22 07:22:04;;;;;;;4.13;2.83;;;;;;;19.61;99.80;94041.75;5074609;28;20244;-81
2021/08/22 07:24:30;;;;;;;4.47;3.00;;;;;;;19.39;100.00;94031.19;5074408;28;20680;-82
2021/08/22 07:26:56;;;;;;;5.55;3.63;;;;;;;19.58;99.35;94037.75;5074322;28;20202;-81
2021/08/22 07:29:23;;;;;;;6.45;3.00;;;;;;;19.59;100.00;94035.91;5075943;28;20201;-79
2021/08/22 07:31:49;;;;;;;5.60;3.35;;;;;;;19.73;98.33;94033.66;5074501;28;20198;-80
2021/08/22 07:34:17;;;;;;;8.35;3.30;;;;;;;19.74;97.95;94035.25;5075365;28;20210;-81
2021/08/22 07:36:43;;;;;;;6.22;3.70;;;;;;;19.91;97.24;94046.56;5074223;28;20199;-79
2021/08/22 07:39:11;;;;;;;5.72;2.72;;;;;;;19.84;96.99;94045.97;5074102;28;20558;-82
2021/08/22 07:41:38;;;;;;;5.00;3.30;;;;;;;20.00;98.48;94043.44;5074377;28;20195;-80
2021/08/22 07:44:05;;;;;;;5.32;3.30;;;;;;;20.09;97.58;94052.53;5074156;28;20206;-80
2021/08/22 07:46:32;;;;;;;7.30;3.00;;;;;;;20.42;96.65;94050.69;5073865;28;20254;-79
2021/08/22 07:48:58;;;;;;;4.22;2.58;;;;;;;20.22;91.42;94051.34;5073932;28;20201;-80
2021/08/22 07:51:26;;;;;;;4.00;2.75;;;;;;;20.94;92.87;94043.84;5073933;28;20205;-79
2021/08/22 07:53:53;;;;;;;4.97;3.08;;;;;;;21.06;90.45;94053.16;5073895;28;20195;-80
2021/08/22 07:56:19;;;;;;;4.20;2.53;;;;;;;21.16;90.94;94052.41;5073949;28;20230;-80
2021/08/22 07:58:46;;;;;;;4.15;2.78;;;;;;;21.07;91.26;94052.13;5073661;28;20209;-80
2021/08/22 08:01:12;;;;;;;4.07;2.65;;;;;;;21.12;88.84;94058.53;5073806;28;20194;-80
2021/08/22 08:03:38;;;;;;;4.13;2.53;;;;;;;21.04;90.03;94055.28;5073673;28;20209;-80
2021/08/22 08:06:05;;;;;;;4.63;2.65;;;;;;;20.72;91.67;94057.25;5073666;28;20206;-80
2021/08/22 08:08:33;;;;;;;4.35;2.60;;;;;;;20.37;94.19;94066.53;5073554;28;20207;-80
2021/08/22 08:10:59;;;;;;;4.75;3.10;;;;;;;19.95;93.64;94068.88;5073469;28;20666;-80
2021/08/22 08:13:25;;;;;;;6.63;2.95;;;;;;;19.79;92.81;94067.13;5072119;28;20437;-80
2021/08/22 08:15:52;;;;;;;6.60;2.83;;;;;;;19.80;91.67;94066.09;5070825;28;20226;-81
2021/08/22 08:18:18;;;;;;;3.45;2.58;;;;;;;19.81;96.71;94069.53;5073007;28;20657;-81
2021/08/22 08:20:45;;;;;;;4.85;2.80;;;;;;;20.21;93.04;94061.13;5072995;28;20512;-81
2021/08/22 08:23:11;;;;;;;4.72;2.75;;;;;;;20.23;90.46;94059.00;5073290;28;20210;-80
2021/08/22 08:25:39;;;;;;;3.28;2.35;;;;;;;20.21;91.31;94066.41;5073205;28;20565;-81
2021/08/22 08:28:06;;;;;;;4.32;2.90;;;;;;;20.24;91.29;94071.22;5073377;28;20198;-80
2021/08/22 08:30:33;;;;;;;4.00;2.50;;;;;;;19.50;93.60;94070.00;5073295;28;20237;-80
2021/08/22 08:33:00;;;;;;;5.60;2.88;;;;;;;19.39;95.44;94070.91;5073207;28;20672;-80
2021/08/22 08:35:26;;;;;;;4.05;2.60;;;;;;;19.39;93.84;94068.28;5073018;28;20227;-80
2021/08/22 08:37:53;;;;;;;4.55;2.65;;;;;;;19.22;96.34;94078.94;5073334;28;20202;-80
2021/08/22 08:40:20;;;;;;;4.30;2.63;;;;;;;19.35;94.81;94069.81;5073236;28;20198;-80
2021/08/22 08:42:48;;;;;;;5.82;3.00;;;;;;;19.19;96.37;94064.34;5073220;28;20199;-78
2021/08/22 08:45:17;;;;;;;5.05;2.60;;;;;;;19.19;98.05;94069.63;5072968;28;20202;-80
2021/08/22 08:47:47;;;;;;;4.70;3.00;;;;;;;19.13;98.91;94075.91;5073209;28;20210;-80
2021/08/22 08:50:16;;;;;;;6.10;3.25;;;;;;;19.00;97.46;94073.63;5072896;28;20203;-80
2021/08/22 08:52:47;;;;;;;5.30;3.22;;;;;;;18.89;99.06;94078.00;5072887;28;20205;-80
2021/08/22 08:55:19;;;;;;;5.28;3.45;;;;;;;18.78;100.00;94082.28;5073046;28;20222;-79
2021/08/22 08:57:46;;;;;;;4.82;3.30;;;;;;;18.77;100.00;94078.06;5072548;28;20206;-80
2021/08/22 09:00:14;;;;;;;5.15;3.30;;;;;;;18.80;100.00;94077.59;5072744;28;20850;-80
2021/08/22 09:02:41;;;;;;;4.65;3.10;;;;;;;19.05;100.00;94078.97;5072774;28;20198;-80
2021/08/22 09:05:13;;;;;;;4.32;3.22;;;;;;;19.15;100.00;94087.06;5072990;28;20205;-80
2021/08/22 09:08:13;;;;;;;8.57;3.45;;;;;;;19.01;100.00;94080.53;5073115;28;20203;-80
2021/08/22 09:11:19;;;;;;;5.22;3.28;;;;;;;18.92;100.00;94084.63;5072369;28;20198;-79
2021/08/22 09:14:23;;;;;;;7.20;3.55;;;;;;;18.97;100.00;94088.16;5072673;28;20198;-80
2021/08/22 09:17:30;;;;;;;6.65;3.20;;;;;;;19.07;100.00;94084.84;5072608;28;20611;-80
2021/08/22 09:20:30;;;;;;;5.22;3.45;;;;;;;18.99;100.00;94087.91;5055136;28;20202;-80
2021/08/22 09:23:33;;;;;;;5.25;2.83;;;;;;;19.08;100.00;94089.06;5072699;28;20198;-80
2021/08/22 09:26:51;;;;;;;4.60;3.20;;;;;;;19.17;100.00;94087.63;5072827;28;20203;-80
2021/08/22 09:29:54;;;;;;;5.47;3.45;;;;;;;19.29;100.00;94086.69;5072649;28;20202;-79
2021/08/22 09:32:58;;;;;;;8.77;3.53;;;;;;;19.38;100.00;94099.25;5072724;28;20198;-82
2021/08/22 09:36:11;;;;;;;5.65;3.40;;;;;;;19.52;100.00;94102.31;5072546;28;20240;-82
2021/08/22 09:39:00;;;;;;;5.55;3.38;;;;;;;19.67;100.00;94092.91;5072037;28;20202;-82
2021/08/22 09:42:09;;;;;;;4.95;3.10;;;;;;;19.73;100.00;94097.22;5072287;28;20203;-81
2021/08/22 09:45:16;;;;;;;5.28;3.17;;;;;;;19.86;98.40;94096.88;5072092;28;20244;-81
2021/08/22 09:48:20;;;;;;;5.43;3.13;;;;;;;20.01;100.00;94090.13;5032662;28;20207;-81
2021/08/22 09:51:27;;;;;;;7.97;3.15;;;;;;;20.18;100.00;94088.13;5032484;28;20200;-80
2021/08/22 09:54:27;;;;;;;6.03;3.65;;;;;;;19.68;99.37;94078.63;5032488;28;20196;-80
2021/08/22 09:57:30;;;;;;;6.03;3.60;;;;;;;19.52;100.00;94083.00;5032523;28;20235;-79
2021/08/22 10:00:56;;;;;;;9.68;3.38;;;;;;;18.99;100.00;94094.00;5032500;28;20200;-80
2021/08/22 10:03:57;;;;;;;5.03;3.13;;;;;;;18.71;100.00;94088.81;4971564;28;20266;-80
2021/08/22 10:06:44;;;;;;;9.38;3.70;;;;;;;18.63;100.00;94084.72;4971481;28;20671;-80
2021/08/22 10:09:12;;;;;;;6.32;3.70;;;;;;;18.79;100.00;94083.13;5031368;28;20215;-82
2021/08/22 10:11:40;;;;;;;6.47;3.53;;;;;;;19.08;100.00;94077.69;5032273;28;20684;-79
2021/08/22 10:14:10;;;;;;;6.72;3.58;;;;;;;19.53;100.00;94076.63;5032203;28;20208;-81
2021/08/22 10:16:37;;;;;;;4.68;3.10;;;;;;;19.52;100.00;94075.03;5031956;28;20224;-80
2021/08/22 10:19:06;;;;;;;5.90;3.20;;;;;;;19.50;100.00;94079.75;5032333;28;20571;-80
2021/08/22 10:21:33;;;;;;;6.22;3.28;;;;;;;19.70;100.00;94084.47;5034480;28;20200;-81
2021/08/22 10:24:02;;;;;;;5.93;3.40;;;;;;;19.41;100.00;94074.13;5035912;28;20200;-79
2021/08/22 10:26:49;;;;;;;5.88;3.42;;;;;;;19.38;100.00;94075.44;5035789;28;20211;-79
2021/08/22 10:29:24;;;;;;;7.43;3.78;;;;;;;19.38;100.00;94078.06;5035593;28;20667;-79
2021/08/22 10:32:07;;;;;;;5.45;3.15;;;;;;;19.16;100.00;94062.19;5035618;28;20729;-81
2021/08/22 10:34:36;;;;;;;5.47;2.97;;;;;;;19.36;100.00;94063.47;5035698;28;20204;-81
2021/08/22 10:37:25;;;;;;;5.15;3.25;;;;;;;19.48;100.00;94048.22;5035550;28;20232;-80
2021/08/22 10:39:51;;;;;;;5.85;3.28;;;;;;;19.39;100.00;94052.38;5035582;28;20262;-82
2021/08/22 10:42:19;;;;;;;6.93;3.40;;;;;;;19.43;100.00;94042.88;5035547;28;20200;-81
2021/08/22 10:44:46;;;;;;;4.15;2.88;;;;;;;19.50;100.00;94050.63;5035421;28;20204;-80
2021/08/22 10:47:13;;;;;;;6.70;3.97;;;;;;;19.30;100.00;94045.91;5071873;28;20449;-81
2021/08/22 10:50:00;;;;;;;13.07;8.20;;;;;;;19.24;100.00;94047.72;5075248;28;20199;-80
2021/08/22 10:52:27;;;;;;;15.32;8.77;;;;;;;19.24;100.00;94047.72;5075187;28;20210;-80
2021/08/22 10:55:29;;;;;;;7.70;4.50;;;;;;;19.28;100.00;94040.06;5075012;28;20656;-80
2021/08/22 10:57:56;;;;;;;6.45;3.60;;;;;;;19.32;100.00;94043.84;5074676;28;20194;-82
2021/08/22 11:00:23;;;;;;;5.38;3.20;;;;;;;19.70;100.00;94042.09;5074917;28;20658;-82
2021/08/22 11:02:50;;;;;;;5.07;3.58;;;;;;;19.69;100.00;94038.66;5075025;28;20292;-83
2021/08/22 11:05:19;;;;;;;6.28;3.25;;;;;;;19.33;100.00;94040.91;5074936;28;20276;-82
2021/08/22 11:07:46;;;;;;;5.45;3.50;;;;;;;19.23;100.00;94041.63;5074797;28;20222;-80
2021/08/22 11:10:13;;;;;;;5.88;3.45;;;;;;;19.40;100.00;94046.03;5074878;28;20215;-80
2021/08/22 11:12:39;;;;;;;6.13;3.80;;;;;;;19.65;99.26;94042.03;5075071;28;20205;-81
2021/08/22 11:15:08;;;;;;;7.80;4.25;;;;;;;19.89;97.30;94043.38;5074644;28;20207;-81
2021/08/22 11:17:35;;;;;;;6.03;3.13;;;;;;;19.73;94.36;94050.34;5074624;28;20231;-80
2021/08/22 11:20:10;;;;;;;5.57;3.25;;;;;;;19.80;94.21;94044.88;5074556;28;20198;-80
2021/08/22 11:22:38;;;;;;;5.95;3.42;;;;;;;20.12;90.76;94047.53;5074701;28;20198;-82
2021/08/22 11:25:07;;;;;;;5.70;3.67;;;;;;;20.49;90.49;94045.94;5074645;28;20206;-82
2021/08/22 11:27:33;;;;;;;7.63;3.45;;;;;;;20.75;88.60;94051.44;5074496;28;20680;-81
2021/08/22 11:30:04;;;;;;;6.35;3.47;;;;;;;20.56;89.56;94045.72;5074290;28;20653;-80
2021/08/22 11:32:31;;;;;;;5.68;3.47;;;;;;;20.44;88.00;94053.88;5072385;28;20230;-82
2021/08/22 11:35:10;;;;;;;5.30;3.08;;;;;;;21.03;84.10;94043.09;5074461;28;20202;-82
2021/08/22 11:37:38;;;;;;;5.43;3.45;;;;;;;20.84;88.72;94048.03;5074304;28;20237;-80
2021/08/22 11:40:09;;;;;;;5.32;3.60;;;;;;;20.39;88.42;94046.69;5074159;28;20199;-80
2021/08/22 11:42:37;;;;;;;6.03;3.50;;;;;;;20.11;90.83;94050.44;5074176;28;20209;-80